Shangzhi, China
Current Conditions -  °F | °C
As of 12:00 PM on Tuesday 21 Oct 2014 (Local Time) from ZYHB Reporting Station
Clear Clear  
Wind Chill: 28°   Ceiling: Unl
Heat Index: 36°   Visibility: 6mi
Dew Point: -2°   Wind: 11mph
Humidity: 20%   Direction: 290°WNW
Pressure: 30.33"   Gusts: NA
Location:  45.22°N, 127.97°E
Report Text: ZYHB 210400Z 29005MPS 250V320 CAVOK 02/M19 Q1027 NOSIG
Loading
Personal Weather Stations






























Interactive Weather Map
Tropical Storm Tracking
New forecast layout! Learn more

10-Day Weather Forecast

Advertisements
Track Severe Weather on mobile